Iliff, Colorado
Current Conditions -  °F | °C
As of 8:30 PM on Monday 22 Dec 2014 (Local Time) from KSTK Reporting Station
Clear Clear  
Wind Chill: 22°   Ceiling: Unl
Heat Index: 34°   Visibility: 10mi
Dew Point: 27°   Wind: 21mph
Humidity: 75%   Direction: 320°NW
Pressure: 29.75"   Gusts: 26mph
Location:  40.76°N, 103.07°W
Report Text: KSTK 230330Z AUTO 32018G23KT 10SM CLR 01/M03 A2975 RMK AO2
Loading
Personal Weather Stations






























Interactive Weather Map New forecast layout! Learn more

10-Day Weather Forecast

Advertisements
Track Severe Weather on mobile